臺東航空站 - ATIS

METAR RCFN 230600Z 05004KT 360V110 9999 FEW020 SCT035 30/24 Q1009 NOSIG RMK A2981(W)=

站台狀態:Online
最後更新:2019-04-23 14:00:02